sensor_id;sensor_type;location;lat;lon;timestamp;pressure;altitude;pressure_sealevel;temperature
70819;BMP280;58439;51.046;13.692;2023-06-10T00:02:05;99840.28;;;20.12
70819;BMP280;58439;51.046;13.692;2023-06-10T00:04:33;99834.19;;;20.16
70819;BMP280;58439;51.046;13.692;2023-06-10T00:07:00;99838.69;;;20.16
70819;BMP280;58439;51.046;13.692;2023-06-10T00:09:36;99844.50;;;20.18
70819;BMP280;58439;51.046;13.692;2023-06-10T00:12:09;99859.16;;;20.15
70819;BMP280;58439;51.046;13.692;2023-06-10T00:14:40;99859.69;;;20.07
70819;BMP280;58439;51.046;13.692;2023-06-10T00:17:18;99856.19;;;20.02
70819;BMP280;58439;51.046;13.692;2023-06-10T00:19:48;99855.41;;;19.96
70819;BMP280;58439;51.046;13.692;2023-06-10T00:22:17;99859.09;;;19.90
70819;BMP280;58439;51.046;13.692;2023-06-10T00:24:49;99856.22;;;19.91
70819;BMP280;58439;51.046;13.692;2023-06-10T00:27:18;99854.84;;;19.84
70819;BMP280;58439;51.046;13.692;2023-06-10T00:29:45;99861.22;;;19.83
70819;BMP280;58439;51.046;13.692;2023-06-10T00:32:12;99857.22;;;19.80
70819;BMP280;58439;51.046;13.692;2023-06-10T00:34:39;99852.97;;;19.74
70819;BMP280;58439;51.046;13.692;2023-06-10T00:37:06;99861.44;;;19.71
70819;BMP280;58439;51.046;13.692;2023-06-10T00:39:36;99862.25;;;19.72
70819;BMP280;58439;51.046;13.692;2023-06-10T00:42:04;99865.66;;;19.67
70819;BMP280;58439;51.046;13.692;2023-06-10T00:44:38;99867.00;;;19.65
70819;BMP280;58439;51.046;13.692;2023-06-10T00:47:06;99872.84;;;19.56
70819;BMP280;58439;51.046;13.692;2023-06-10T00:49:38;99880.75;;;19.51
70819;BMP280;58439;51.046;13.692;2023-06-10T00:52:11;99881.28;;;19.48
70819;BMP280;58439;51.046;13.692;2023-06-10T00:54:41;99883.09;;;19.43
70819;BMP280;58439;51.046;13.692;2023-06-10T00:57:09;99878.06;;;19.41
70819;BMP280;58439;51.046;13.692;2023-06-10T00:59:39;99893.69;;;19.38
70819;BMP280;58439;51.046;13.692;2023-06-10T01:02:07;99894.25;;;19.40
70819;BMP280;58439;51.046;13.692;2023-06-10T01:04:39;99896.34;;;19.33
70819;BMP280;58439;51.046;13.692;2023-06-10T01:07:32;99905.88;;;19.28
70819;BMP280;58439;51.046;13.692;2023-06-10T01:10:20;99903.16;;;19.23
70819;BMP280;58439;51.046;13.692;2023-06-10T01:13:03;99909.00;;;19.20
70819;BMP280;58439;51.046;13.692;2023-06-10T01:15:35;99915.88;;;19.16
70819;BMP280;58439;51.046;13.692;2023-06-10T01:18:10;99906.00;;;19.12
70819;BMP280;58439;51.046;13.692;2023-06-10T01:20:45;99915.81;;;19.11
70819;BMP280;58439;51.046;13.692;2023-06-10T01:23:20;99911.03;;;19.08
70819;BMP280;58439;51.046;13.692;2023-06-10T01:26:04;99919.69;;;18.93
70819;BMP280;58439;51.046;13.692;2023-06-10T01:28:43;99906.84;;;18.80
70819;BMP280;58439;51.046;13.692;2023-06-10T01:31:31;99910.97;;;18.66
70819;BMP280;58439;51.046;13.692;2023-06-10T01:34:07;99919.69;;;18.61
70819;BMP280;58439;51.046;13.692;2023-06-10T01:36:40;99915.19;;;18.62
70819;BMP280;58439;51.046;13.692;2023-06-10T01:39:10;99917.59;;;18.63
70819;BMP280;58439;51.046;13.692;2023-06-10T01:41:38;99914.91;;;18.58
70819;BMP280;58439;51.046;13.692;2023-06-10T01:44:08;99923.81;;;18.52
70819;BMP280;58439;51.046;13.692;2023-06-10T01:46:36;99921.47;;;18.51
70819;BMP280;58439;51.046;13.692;2023-06-10T01:49:03;99928.09;;;18.53
70819;BMP280;58439;51.046;13.692;2023-06-10T01:51:31;99930.16;;;18.46
70819;BMP280;58439;51.046;13.692;2023-06-10T01:53:59;99937.06;;;18.47
70819;BMP280;58439;51.046;13.692;2023-06-10T01:56:27;99929.88;;;18.48
70819;BMP280;58439;51.046;13.692;2023-06-10T01:58:55;99931.25;;;18.50
70819;BMP280;58439;51.046;13.692;2023-06-10T02:01:26;99939.38;;;18.44
70819;BMP280;58439;51.046;13.692;2023-06-10T02:03:55;99937.53;;;18.44
70819;BMP280;58439;51.046;13.692;2023-06-10T02:06:23;99943.34;;;18.41
70819;BMP280;58439;51.046;13.692;2023-06-10T02:08:54;99945.72;;;18.37
70819;BMP280;58439;51.046;13.692;2023-06-10T02:11:24;99941.66;;;18.30
70819;BMP280;58439;51.046;13.692;2023-06-10T02:13:53;99948.78;;;18.29
70819;BMP280;58439;51.046;13.692;2023-06-10T02:16:26;99948.72;;;18.24
70819;BMP280;58439;51.046;13.692;2023-06-10T02:18:54;99952.41;;;18.18
70819;BMP280;58439;51.046;13.692;2023-06-10T02:21:23;99951.50;;;18.13
70819;BMP280;58439;51.046;13.692;2023-06-10T02:23:50;99950.88;;;18.05
70819;BMP280;58439;51.046;13.692;2023-06-10T02:26:17;99949.28;;;18.04
70819;BMP280;58439;51.046;13.692;2023-06-10T02:28:44;99952.16;;;17.98
70819;BMP280;58439;51.046;13.692;2023-06-10T02:31:13;99950.22;;;17.93
70819;BMP280;58439;51.046;13.692;2023-06-10T02:33:41;99959.47;;;17.91
70819;BMP280;58439;51.046;13.692;2023-06-10T02:36:09;99957.84;;;17.90
70819;BMP280;58439;51.046;13.692;2023-06-10T02:38:40;99957.81;;;17.85
70819;BMP280;58439;51.046;13.692;2023-06-10T02:41:08;99960.63;;;17.78
70819;BMP280;58439;51.046;13.692;2023-06-10T02:43:42;99957.25;;;17.66
70819;BMP280;58439;51.046;13.692;2023-06-10T02:46:11;99952.50;;;17.63
70819;BMP280;58439;51.046;13.692;2023-06-10T02:48:45;99957.78;;;17.63
70819;BMP280;58439;51.046;13.692;2023-06-10T02:51:23;99951.44;;;17.64
70819;BMP280;58439;51.046;13.692;2023-06-10T02:53:57;99955.13;;;17.63
70819;BMP280;58439;51.046;13.692;2023-06-10T02:56:37;99944.47;;;17.58
70819;BMP280;58439;51.046;13.692;2023-06-10T02:59:17;99946.75;;;17.49
70819;BMP280;58439;51.046;13.692;2023-06-10T03:01:46;99945.06;;;17.43
70819;BMP280;58439;51.046;13.692;2023-06-10T03:04:13;99951.38;;;17.42
70819;BMP280;58439;51.046;13.692;2023-06-10T03:06:49;99944.56;;;17.46
70819;BMP280;58439;51.046;13.692;2023-06-10T03:09:22;99944.25;;;17.42
70819;BMP280;58439;51.046;13.692;2023-06-10T03:11:53;99954.53;;;17.39
70819;BMP280;58439;51.046;13.692;2023-06-10T03:14:21;99957.09;;;17.34
70819;BMP280;58439;51.046;13.692;2023-06-10T03:16:48;99955.25;;;17.34
70819;BMP280;58439;51.046;13.692;2023-06-10T03:19:15;99960.53;;;17.34
70819;BMP280;58439;51.046;13.692;2023-06-10T03:22:06;99963.25;;;17.23
70819;BMP280;58439;51.046;13.692;2023-06-10T03:24:36;99957.69;;;17.19
70819;BMP280;58439;51.046;13.692;2023-06-10T03:27:06;99967.00;;;17.27
70819;BMP280;58439;51.046;13.692;2023-06-10T03:29:39;99968.47;;;17.34
70819;BMP280;58439;51.046;13.692;2023-06-10T03:32:07;99966.78;;;17.45
70819;BMP280;58439;51.046;13.692;2023-06-10T03:34:36;99965.41;;;17.59
70819;BMP280;58439;51.046;13.692;2023-06-10T03:37:04;99968.13;;;17.64
70819;BMP280;58439;51.046;13.692;2023-06-10T03:39:32;99967.31;;;17.64
70819;BMP280;58439;51.046;13.692;2023-06-10T03:42:01;99968.38;;;17.63
70819;BMP280;58439;51.046;13.692;2023-06-10T03:44:30;99977.00;;;17.58
70819;BMP280;58439;51.046;13.692;2023-06-10T03:46:57;99970.44;;;17.61
70819;BMP280;58439;51.046;13.692;2023-06-10T03:49:26;99971.22;;;17.61
70819;BMP280;58439;51.046;13.692;2023-06-10T03:51:59;99968.06;;;17.59
70819;BMP280;58439;51.046;13.692;2023-06-10T03:54:29;99963.56;;;17.60
70819;BMP280;58439;51.046;13.692;2023-06-10T03:56:59;99974.44;;;17.63
70819;BMP280;58439;51.046;13.692;2023-06-10T03:59:26;99978.22;;;17.67
70819;BMP280;58439;51.046;13.692;2023-06-10T04:01:53;99983.06;;;17.75
70819;BMP280;58439;51.046;13.692;2023-06-10T04:04:20;99985.63;;;17.87
70819;BMP280;58439;51.046;13.692;2023-06-10T04:06:47;99987.59;;;17.97
70819;BMP280;58439;51.046;13.692;2023-06-10T04:09:15;99988.22;;;18.04
70819;BMP280;58439;51.046;13.692;2023-06-10T04:11:45;99988.78;;;18.06
70819;BMP280;58439;51.046;13.692;2023-06-10T04:14:12;99987.16;;;18.05
70819;BMP280;58439;51.046;13.692;2023-06-10T04:16:41;99990.69;;;18.11
70819;BMP280;58439;51.046;13.692;2023-06-10T04:19:10;99990.22;;;18.14
70819;BMP280;58439;51.046;13.692;2023-06-10T04:21:38;99981.69;;;18.12
70819;BMP280;58439;51.046;13.692;2023-06-10T04:24:05;99986.47;;;18.15
70819;BMP280;58439;51.046;13.692;2023-06-10T04:26:36;99993.44;;;18.21
70819;BMP280;58439;51.046;13.692;2023-06-10T04:29:04;99987.41;;;18.25
70819;BMP280;58439;51.046;13.692;2023-06-10T04:31:32;99985.31;;;18.27
70819;BMP280;58439;51.046;13.692;2023-06-10T04:33:59;99986.97;;;18.33
70819;BMP280;58439;51.046;13.692;2023-06-10T04:36:29;99986.16;;;18.33
70819;BMP280;58439;51.046;13.692;2023-06-10T04:38:56;99985.16;;;18.39
70819;BMP280;58439;51.046;13.692;2023-06-10T04:41:24;99989.59;;;18.55
70819;BMP280;58439;51.046;13.692;2023-06-10T04:43:52;99991.78;;;18.63
70819;BMP280;58439;51.046;13.692;2023-06-10T04:46:20;99988.66;;;18.72
70819;BMP280;58439;51.046;13.692;2023-06-10T04:48:48;99986.66;;;18.84
70819;BMP280;58439;51.046;13.692;2023-06-10T04:51:15;99987.81;;;18.93
70819;BMP280;58439;51.046;13.692;2023-06-10T04:53:48;99985.72;;;19.00
70819;BMP280;58439;51.046;13.692;2023-06-10T04:56:15;99983.69;;;19.07
70819;BMP280;58439;51.046;13.692;2023-06-10T04:58:45;99983.97;;;19.11
70819;BMP280;58439;51.046;13.692;2023-06-10T05:01:12;99984.84;;;19.16
70819;BMP280;58439;51.046;13.692;2023-06-10T05:03:40;99991.50;;;19.24
70819;BMP280;58439;51.046;13.692;2023-06-10T05:06:07;99986.75;;;19.31
70819;BMP280;58439;51.046;13.692;2023-06-10T05:08:34;99993.19;;;19.40
70819;BMP280;58439;51.046;13.692;2023-06-10T05:11:01;99990.84;;;19.49
70819;BMP280;58439;51.046;13.692;2023-06-10T05:13:29;99993.00;;;19.57
70819;BMP280;58439;51.046;13.692;2023-06-10T05:15:59;99993.34;;;19.60
70819;BMP280;58439;51.046;13.692;2023-06-10T05:18:26;99993.91;;;19.68
70819;BMP280;58439;51.046;13.692;2023-06-10T05:20:53;99989.13;;;19.75
70819;BMP280;58439;51.046;13.692;2023-06-10T05:23:26;100001.66;;;19.84
70819;BMP280;58439;51.046;13.692;2023-06-10T05:25:53;99996.38;;;19.94
70819;BMP280;58439;51.046;13.692;2023-06-10T05:28:20;100000.13;;;19.99
70819;BMP280;58439;51.046;13.692;2023-06-10T05:30:47;99996.97;;;20.07
70819;BMP280;58439;51.046;13.692;2023-06-10T05:33:14;99993.50;;;20.06
70819;BMP280;58439;51.046;13.692;2023-06-10T05:35:41;100003.00;;;19.92
70819;BMP280;58439;51.046;13.692;2023-06-10T05:38:09;100004.53;;;19.73
70819;BMP280;58439;51.046;13.692;2023-06-10T05:40:36;100007.41;;;19.61
70819;BMP280;58439;51.046;13.692;2023-06-10T05:43:03;100009.53;;;19.64
70819;BMP280;58439;51.046;13.692;2023-06-10T05:45:30;100014.66;;;19.81
70819;BMP280;58439;51.046;13.692;2023-06-10T05:47:57;100016.38;;;20.12
70819;BMP280;58439;51.046;13.692;2023-06-10T05:50:24;100011.16;;;20.48
70819;BMP280;58439;51.046;13.692;2023-06-10T05:52:51;100009.84;;;20.66
70819;BMP280;58439;51.046;13.692;2023-06-10T05:55:20;100010.94;;;20.75
70819;BMP280;58439;51.046;13.692;2023-06-10T05:57:59;100016.25;;;20.85
70819;BMP280;58439;51.046;13.692;2023-06-10T06:00:27;100015.97;;;20.86
70819;BMP280;58439;51.046;13.692;2023-06-10T06:02:54;100021.03;;;20.93
70819;BMP280;58439;51.046;13.692;2023-06-10T06:05:22;100013.03;;;21.03
70819;BMP280;58439;51.046;13.692;2023-06-10T06:07:50;100017.31;;;20.99
70819;BMP280;58439;51.046;13.692;2023-06-10T06:10:18;100018.94;;;21.05
70819;BMP280;58439;51.046;13.692;2023-06-10T06:12:45;100026.06;;;21.15
70819;BMP280;58439;51.046;13.692;2023-06-10T06:15:12;100016.25;;;21.26
70819;BMP280;58439;51.046;13.692;2023-06-10T06:17:40;100020.22;;;21.33
70819;BMP280;58439;51.046;13.692;2023-06-10T06:20:09;100014.31;;;21.36
70819;BMP280;58439;51.046;13.692;2023-06-10T06:22:36;100009.50;;;21.43
70819;BMP280;58439;51.046;13.692;2023-06-10T06:25:05;100016.72;;;21.53
70819;BMP280;58439;51.046;13.692;2023-06-10T06:27:32;100018.53;;;21.63
70819;BMP280;58439;51.046;13.692;2023-06-10T06:30:00;100019.06;;;21.70
70819;BMP280;58439;51.046;13.692;2023-06-10T06:32:27;100021.69;;;21.75
70819;BMP280;58439;51.046;13.692;2023-06-10T06:34:57;100021.91;;;21.89
70819;BMP280;58439;51.046;13.692;2023-06-10T06:37:25;100024.25;;;22.00
70819;BMP280;58439;51.046;13.692;2023-06-10T06:40:07;100020.69;;;22.15
70819;BMP280;58439;51.046;13.692;2023-06-10T06:42:34;100017.19;;;22.25
70819;BMP280;58439;51.046;13.692;2023-06-10T06:45:16;100028.88;;;22.34
70819;BMP280;58439;51.046;13.692;2023-06-10T06:47:43;100031.31;;;22.25
70819;BMP280;58439;51.046;13.692;2023-06-10T06:50:10;100039.09;;;22.11
70819;BMP280;58439;51.046;13.692;2023-06-10T06:52:38;100037.06;;;21.93
70819;BMP280;58439;51.046;13.692;2023-06-10T06:55:05;100040.59;;;21.78
70819;BMP280;58439;51.046;13.692;2023-06-10T06:57:33;100041.91;;;21.76
70819;BMP280;58439;51.046;13.692;2023-06-10T07:00:00;100050.13;;;21.90
70819;BMP280;58439;51.046;13.692;2023-06-10T07:02:27;100052.97;;;22.03
70819;BMP280;58439;51.046;13.692;2023-06-10T07:04:54;100059.59;;;22.21
70819;BMP280;58439;51.046;13.692;2023-06-10T07:07:23;100062.75;;;22.28
70819;BMP280;58439;51.046;13.692;2023-06-10T07:09:50;100062.66;;;22.38
70819;BMP280;58439;51.046;13.692;2023-06-10T07:12:17;100067.31;;;22.67
70819;BMP280;58439;51.046;13.692;2023-06-10T07:14:45;100061.72;;;23.02
70819;BMP280;58439;51.046;13.692;2023-06-10T07:17:12;100063.56;;;23.26
70819;BMP280;58439;51.046;13.692;2023-06-10T07:19:40;100067.94;;;23.45
70819;BMP280;58439;51.046;13.692;2023-06-10T07:22:07;100074.19;;;23.60
70819;BMP280;58439;51.046;13.692;2023-06-10T07:24:35;100073.56;;;23.68
70819;BMP280;58439;51.046;13.692;2023-06-10T07:27:02;100072.75;;;23.67
70819;BMP280;58439;51.046;13.692;2023-06-10T07:29:29;100078.66;;;23.69
70819;BMP280;58439;51.046;13.692;2023-06-10T07:31:56;100065.06;;;23.84
70819;BMP280;58439;51.046;13.692;2023-06-10T07:34:24;100075.53;;;24.05
70819;BMP280;58439;51.046;13.692;2023-06-10T07:36:51;100072.84;;;24.05
70819;BMP280;58439;51.046;13.692;2023-06-10T07:39:18;100068.53;;;24.09
70819;BMP280;58439;51.046;13.692;2023-06-10T07:41:45;100070.75;;;24.02
70819;BMP280;58439;51.046;13.692;2023-06-10T07:44:12;100080.25;;;23.89
70819;BMP280;58439;51.046;13.692;2023-06-10T07:46:39;100081.09;;;23.84
70819;BMP280;58439;51.046;13.692;2023-06-10T07:49:06;100083.75;;;23.84
70819;BMP280;58439;51.046;13.692;2023-06-10T07:51:34;100073.03;;;23.90
70819;BMP280;58439;51.046;13.692;2023-06-10T07:54:01;100082.94;;;24.08
70819;BMP280;58439;51.046;13.692;2023-06-10T07:56:28;100087.97;;;24.33
70819;BMP280;58439;51.046;13.692;2023-06-10T07:58:55;100087.97;;;24.52
70819;BMP280;58439;51.046;13.692;2023-06-10T08:01:23;100082.94;;;24.64
70819;BMP280;58439;51.046;13.692;2023-06-10T08:03:51;100081.88;;;24.65
70819;BMP280;58439;51.046;13.692;2023-06-10T08:06:18;100080.94;;;24.56
70819;BMP280;58439;51.046;13.692;2023-06-10T08:08:45;100085.50;;;24.56
70819;BMP280;58439;51.046;13.692;2023-06-10T08:11:13;100091.84;;;24.60
70819;BMP280;58439;51.046;13.692;2023-06-10T08:13:41;100086.84;;;24.72
70819;BMP280;58439;51.046;13.692;2023-06-10T08:16:08;100079.94;;;24.84
70819;BMP280;58439;51.046;13.692;2023-06-10T08:18:35;100089.31;;;25.01
70819;BMP280;58439;51.046;13.692;2023-06-10T08:21:02;100090.81;;;25.21
70819;BMP280;58439;51.046;13.692;2023-06-10T08:23:29;100090.34;;;25.46
70819;BMP280;58439;51.046;13.692;2023-06-10T08:25:56;100097.88;;;25.44
70819;BMP280;58439;51.046;13.692;2023-06-10T08:28:25;100093.50;;;25.21
70819;BMP280;58439;51.046;13.692;2023-06-10T08:30:52;100100.44;;;25.22
70819;BMP280;58439;51.046;13.692;2023-06-10T08:33:23;100104.09;;;25.26
70819;BMP280;58439;51.046;13.692;2023-06-10T08:35:50;100098.78;;;25.39
70819;BMP280;58439;51.046;13.692;2023-06-10T08:38:17;100099.34;;;25.50
70819;BMP280;58439;51.046;13.692;2023-06-10T08:40:45;100089.56;;;25.45
70819;BMP280;58439;51.046;13.692;2023-06-10T08:43:37;100089.75;;;25.49
70819;BMP280;58439;51.046;13.692;2023-06-10T08:46:09;100092.31;;;25.54
70819;BMP280;58439;51.046;13.692;2023-06-10T08:48:43;100089.16;;;25.52
70819;BMP280;58439;51.046;13.692;2023-06-10T08:51:11;100089.56;;;25.59
70819;BMP280;58439;51.046;13.692;2023-06-10T08:53:55;100093.69;;;25.93
70819;BMP280;58439;51.046;13.692;2023-06-10T08:56:25;100092.09;;;25.92
70819;BMP280;58439;51.046;13.692;2023-06-10T08:58:55;100091.69;;;25.98
70819;BMP280;58439;51.046;13.692;2023-06-10T09:01:25;100079.84;;;26.58
70819;BMP280;58439;51.046;13.692;2023-06-10T09:03:54;100075.69;;;27.05
70819;BMP280;58439;51.046;13.692;2023-06-10T09:06:22;100077.81;;;27.25
70819;BMP280;58439;51.046;13.692;2023-06-10T09:08:50;100082.75;;;27.40
70819;BMP280;58439;51.046;13.692;2023-06-10T09:11:18;100081.03;;;27.44
70819;BMP280;58439;51.046;13.692;2023-06-10T09:13:45;100078.38;;;27.53
70819;BMP280;58439;51.046;13.692;2023-06-10T09:16:12;100085.81;;;27.47
70819;BMP280;58439;51.046;13.692;2023-06-10T09:18:40;100076.91;;;27.38
70819;BMP280;58439;51.046;13.692;2023-06-10T09:21:07;100074.09;;;27.43
70819;BMP280;58439;51.046;13.692;2023-06-10T09:23:36;100083.22;;;27.34
70819;BMP280;58439;51.046;13.692;2023-06-10T09:26:09;100074.13;;;27.04
70819;BMP280;58439;51.046;13.692;2023-06-10T09:28:38;100081.78;;;26.88
70819;BMP280;58439;51.046;13.692;2023-06-10T09:31:11;100079.16;;;27.05
70819;BMP280;58439;51.046;13.692;2023-06-10T09:33:39;100083.63;;;27.10
70819;BMP280;58439;51.046;13.692;2023-06-10T09:36:07;100081.72;;;27.10
70819;BMP280;58439;51.046;13.692;2023-06-10T09:38:35;100075.56;;;27.18
70819;BMP280;58439;51.046;13.692;2023-06-10T09:41:03;100077.69;;;27.39
70819;BMP280;58439;51.046;13.692;2023-06-10T09:46:14;100087.97;;;27.37
70819;BMP280;58439;51.046;13.692;2023-06-10T09:48:44;100087.06;;;27.58
70819;BMP280;58439;51.046;13.692;2023-06-10T09:51:13;100086.94;;;27.64
70819;BMP280;58439;51.046;13.692;2023-06-10T09:53:41;100081.06;;;27.53
70819;BMP280;58439;51.046;13.692;2023-06-10T09:56:08;100081.56;;;27.64
70819;BMP280;58439;51.046;13.692;2023-06-10T09:58:38;100085.09;;;27.99
70819;BMP280;58439;51.046;13.692;2023-06-10T10:01:11;100089.31;;;28.08
70819;BMP280;58439;51.046;13.692;2023-06-10T10:03:48;100085.53;;;28.01
70819;BMP280;58439;51.046;13.692;2023-06-10T10:06:18;100080.97;;;28.18
70819;BMP280;58439;51.046;13.692;2023-06-10T10:08:48;100089.00;;;28.27
70819;BMP280;58439;51.046;13.692;2023-06-10T10:11:21;100088.03;;;28.49
70819;BMP280;58439;51.046;13.692;2023-06-10T10:13:53;100085.81;;;28.59
70819;BMP280;58439;51.046;13.692;2023-06-10T10:16:40;100073.63;;;28.36
70819;BMP280;58439;51.046;13.692;2023-06-10T10:19:29;100068.75;;;28.29
70819;BMP280;58439;51.046;13.692;2023-06-10T10:22:07;100066.84;;;28.39
70819;BMP280;58439;51.046;13.692;2023-06-10T10:24:52;100072.00;;;28.69
70819;BMP280;58439;51.046;13.692;2023-06-10T10:27:38;100066.88;;;28.85
70819;BMP280;58439;51.046;13.692;2023-06-10T10:30:11;100075.25;;;28.20
70819;BMP280;58439;51.046;13.692;2023-06-10T10:32:50;100071.94;;;27.80
70819;BMP280;58439;51.046;13.692;2023-06-10T10:35:24;100065.44;;;27.64
70819;BMP280;58439;51.046;13.692;2023-06-10T10:37:53;100080.34;;;27.30
70819;BMP280;58439;51.046;13.692;2023-06-10T10:40:23;100075.34;;;27.46
70819;BMP280;58439;51.046;13.692;2023-06-10T10:42:53;100076.97;;;27.81
70819;BMP280;58439;51.046;13.692;2023-06-10T10:45:22;100078.41;;;27.96
70819;BMP280;58439;51.046;13.692;2023-06-10T10:47:53;100074.78;;;28.18
70819;BMP280;58439;51.046;13.692;2023-06-10T10:50:22;100082.81;;;28.44
70819;BMP280;58439;51.046;13.692;2023-06-10T10:53:02;100084.53;;;28.65
70819;BMP280;58439;51.046;13.692;2023-06-10T10:55:31;100080.53;;;28.72
70819;BMP280;58439;51.046;13.692;2023-06-10T10:58:06;100074.34;;;28.71
70819;BMP280;58439;51.046;13.692;2023-06-10T11:00:43;100062.16;;;28.74
70819;BMP280;58439;51.046;13.692;2023-06-10T11:03:16;100059.31;;;29.08
70819;BMP280;58439;51.046;13.692;2023-06-10T11:05:48;100058.81;;;29.35
70819;BMP280;58439;51.046;13.692;2023-06-10T11:08:49;100067.13;;;29.01
70819;BMP280;58439;51.046;13.692;2023-06-10T11:11:27;100060.56;;;29.61
70819;BMP280;58439;51.046;13.692;2023-06-10T11:16:29;100053.31;;;31.24
70819;BMP280;58439;51.046;13.692;2023-06-10T11:18:57;100055.75;;;30.90
70819;BMP280;58439;51.046;13.692;2023-06-10T11:21:24;100042.72;;;31.87
70819;BMP280;58439;51.046;13.692;2023-06-10T11:23:58;100042.28;;;33.53
70819;BMP280;58439;51.046;13.692;2023-06-10T11:29:07;100046.75;;;35.45
70819;BMP280;58439;51.046;13.692;2023-06-10T11:31:44;100037.47;;;35.98
70819;BMP280;58439;51.046;13.692;2023-06-10T11:34:13;100034.63;;;36.34
70819;BMP280;58439;51.046;13.692;2023-06-10T11:36:43;100027.03;;;35.22
70819;BMP280;58439;51.046;13.692;2023-06-10T11:39:13;100028.97;;;33.48
70819;BMP280;58439;51.046;13.692;2023-06-10T11:41:40;100031.03;;;31.55
70819;BMP280;58439;51.046;13.692;2023-06-10T11:44:10;100021.94;;;30.71
70819;BMP280;58439;51.046;13.692;2023-06-10T11:46:39;100025.06;;;30.25
70819;BMP280;58439;51.046;13.692;2023-06-10T11:49:06;100027.03;;;31.93
70819;BMP280;58439;51.046;13.692;2023-06-10T11:51:42;100029.75;;;33.45
70819;BMP280;58439;51.046;13.692;2023-06-10T11:54:17;100029.59;;;34.25
70819;BMP280;58439;51.046;13.692;2023-06-10T11:56:45;100027.13;;;34.99
70819;BMP280;58439;51.046;13.692;2023-06-10T11:59:13;100023.63;;;35.32
70819;BMP280;58439;51.046;13.692;2023-06-10T12:01:45;100035.31;;;35.70
70819;BMP280;58439;51.046;13.692;2023-06-10T12:04:16;100029.09;;;34.99
70819;BMP280;58439;51.046;13.692;2023-06-10T12:06:50;100029.63;;;34.82
70819;BMP280;58439;51.046;13.692;2023-06-10T12:09:23;100017.81;;;33.49
70819;BMP280;58439;51.046;13.692;2023-06-10T12:12:03;100007.38;;;34.20
70819;BMP280;58439;51.046;13.692;2023-06-10T12:14:59;100018.13;;;35.29
70819;BMP280;58439;51.046;13.692;2023-06-10T12:20:03;100020.38;;;36.62
70819;BMP280;58439;51.046;13.692;2023-06-10T12:22:42;100019.59;;;36.62
70819;BMP280;58439;51.046;13.692;2023-06-10T12:25:11;100009.13;;;36.78
70819;BMP280;58439;51.046;13.692;2023-06-10T12:27:50;100004.97;;;37.16
70819;BMP280;58439;51.046;13.692;2023-06-10T12:30:24;100000.28;;;37.09
70819;BMP280;58439;51.046;13.692;2023-06-10T12:32:52;99990.78;;;36.68
70819;BMP280;58439;51.046;13.692;2023-06-10T12:35:25;99994.91;;;36.33
70819;BMP280;58439;51.046;13.692;2023-06-10T12:37:59;99993.56;;;36.86
70819;BMP280;58439;51.046;13.692;2023-06-10T12:40:33;99993.72;;;37.46
70819;BMP280;58439;51.046;13.692;2023-06-10T12:43:01;99989.00;;;37.64
70819;BMP280;58439;51.046;13.692;2023-06-10T12:45:29;99991.78;;;37.57
70819;BMP280;58439;51.046;13.692;2023-06-10T12:48:19;99997.19;;;37.75
70819;BMP280;58439;51.046;13.692;2023-06-10T12:50:53;99989.81;;;37.72
70819;BMP280;58439;51.046;13.692;2023-06-10T12:53:22;99986.28;;;37.43
70819;BMP280;58439;51.046;13.692;2023-06-10T12:55:53;99983.09;;;36.98
70819;BMP280;58439;51.046;13.692;2023-06-10T12:58:22;99991.28;;;37.05
70819;BMP280;58439;51.046;13.692;2023-06-10T13:00:50;99988.09;;;36.71
70819;BMP280;58439;51.046;13.692;2023-06-10T13:03:20;99992.28;;;36.58
70819;BMP280;58439;51.046;13.692;2023-06-10T13:05:47;99988.97;;;37.29
70819;BMP280;58439;51.046;13.692;2023-06-10T13:08:15;99999.16;;;37.42
70819;BMP280;58439;51.046;13.692;2023-06-10T13:10:42;99992.13;;;37.24
70819;BMP280;58439;51.046;13.692;2023-06-10T13:13:09;100002.66;;;37.36
70819;BMP280;58439;51.046;13.692;2023-06-10T13:15:37;99991.94;;;36.70
70819;BMP280;58439;51.046;13.692;2023-06-10T13:18:09;99981.91;;;36.89
70819;BMP280;58439;51.046;13.692;2023-06-10T13:20:36;99984.31;;;37.11
70819;BMP280;58439;51.046;13.692;2023-06-10T13:23:03;99990.22;;;37.42
70819;BMP280;58439;51.046;13.692;2023-06-10T13:25:32;99989.41;;;37.59
70819;BMP280;58439;51.046;13.692;2023-06-10T13:27:59;99990.22;;;37.42
70819;BMP280;58439;51.046;13.692;2023-06-10T13:30:26;99986.25;;;37.11
70819;BMP280;58439;51.046;13.692;2023-06-10T13:32:53;99995.97;;;36.98
70819;BMP280;58439;51.046;13.692;2023-06-10T13:35:20;99999.47;;;36.98
70819;BMP280;58439;51.046;13.692;2023-06-10T13:37:47;99995.50;;;36.78
70819;BMP280;58439;51.046;13.692;2023-06-10T13:40:15;99988.16;;;36.96
70819;BMP280;58439;51.046;13.692;2023-06-10T13:42:43;99984.72;;;37.63
70819;BMP280;58439;51.046;13.692;2023-06-10T13:45:10;99990.13;;;38.16
70819;BMP280;58439;51.046;13.692;2023-06-10T13:47:37;99980.44;;;37.48
70819;BMP280;58439;51.046;13.692;2023-06-10T13:50:07;99984.69;;;37.13
70819;BMP280;58439;51.046;13.692;2023-06-10T13:52:34;99977.66;;;37.09
70819;BMP280;58439;51.046;13.692;2023-06-10T13:55:01;99975.38;;;37.71
70819;BMP280;58439;51.046;13.692;2023-06-10T13:57:28;99972.97;;;37.91
70819;BMP280;58439;51.046;13.692;2023-06-10T13:59:56;99966.00;;;37.47
70819;BMP280;58439;51.046;13.692;2023-06-10T14:02:23;99978.50;;;37.34
70819;BMP280;58439;51.046;13.692;2023-06-10T14:04:51;99983.94;;;37.59
70819;BMP280;58439;51.046;13.692;2023-06-10T14:07:18;99983.53;;;37.68
70819;BMP280;58439;51.046;13.692;2023-06-10T14:09:45;99986.91;;;36.69
70819;BMP280;58439;51.046;13.692;2023-06-10T14:12:13;99979.44;;;35.09
70819;BMP280;58439;51.046;13.692;2023-06-10T14:14:40;99986.91;;;35.56
70819;BMP280;58439;51.046;13.692;2023-06-10T14:17:07;99974.47;;;36.03
70819;BMP280;58439;51.046;13.692;2023-06-10T14:19:34;99979.69;;;36.32